sensor_id;sensor_type;location;lat;lon;timestamp;temperature;humidity
8684;DHT22;4379;59.744;18.206;2023-11-21T00:00:23;0.40;99.90
8684;DHT22;4379;59.744;18.206;2023-11-21T00:03:07;0.40;99.90
8684;DHT22;4379;59.744;18.206;2023-11-21T00:05:44;0.40;99.90
8684;DHT22;4379;59.744;18.206;2023-11-21T00:08:15;0.40;99.90
8684;DHT22;4379;59.744;18.206;2023-11-21T00:10:44;0.40;99.90
8684;DHT22;4379;59.744;18.206;2023-11-21T00:13:21;0.40;99.90
8684;DHT22;4379;59.744;18.206;2023-11-21T00:15:49;0.50;99.90
8684;DHT22;4379;59.744;18.206;2023-11-21T00:18:20;0.40;99.90
8684;DHT22;4379;59.744;18.206;2023-11-21T00:20:48;0.30;99.90
8684;DHT22;4379;59.744;18.206;2023-11-21T00:23:23;0.30;99.90
8684;DHT22;4379;59.744;18.206;2023-11-21T00:25:54;0.30;99.90
8684;DHT22;4379;59.744;18.206;2023-11-21T00:28:26;0.30;99.90
8684;DHT22;4379;59.744;18.206;2023-11-21T00:30:56;0.30;99.90
8684;DHT22;4379;59.744;18.206;2023-11-21T00:33:25;0.30;99.90
8684;DHT22;4379;59.744;18.206;2023-11-21T00:35:56;0.30;99.90
8684;DHT22;4379;59.744;18.206;2023-11-21T00:38:25;0.30;99.90
8684;DHT22;4379;59.744;18.206;2023-11-21T00:41:00;0.40;99.90
8684;DHT22;4379;59.744;18.206;2023-11-21T00:43:38;0.30;99.90
8684;DHT22;4379;59.744;18.206;2023-11-21T00:46:10;0.40;99.90
8684;DHT22;4379;59.744;18.206;2023-11-21T00:48:43;0.50;99.90
8684;DHT22;4379;59.744;18.206;2023-11-21T00:51:25;0.50;99.90
8684;DHT22;4379;59.744;18.206;2023-11-21T00:53:55;0.30;99.90
8684;DHT22;4379;59.744;18.206;2023-11-21T00:56:29;0.30;99.90
8684;DHT22;4379;59.744;18.206;2023-11-21T00:59:30;0.50;99.90
8684;DHT22;4379;59.744;18.206;2023-11-21T01:02:14;0.40;99.90
8684;DHT22;4379;59.744;18.206;2023-11-21T01:04:43;0.50;99.90
8684;DHT22;4379;59.744;18.206;2023-11-21T01:07:37;0.50;99.90
8684;DHT22;4379;59.744;18.206;2023-11-21T01:10:05;0.50;99.90
8684;DHT22;4379;59.744;18.206;2023-11-21T01:12:38;0.50;99.90
8684;DHT22;4379;59.744;18.206;2023-11-21T01:15:07;0.50;99.90
8684;DHT22;4379;59.744;18.206;2023-11-21T01:17:35;0.50;99.90
8684;DHT22;4379;59.744;18.206;2023-11-21T01:20:03;0.60;99.90
8684;DHT22;4379;59.744;18.206;2023-11-21T01:22:33;0.50;99.90
8684;DHT22;4379;59.744;18.206;2023-11-21T01:25:00;0.50;99.90
8684;DHT22;4379;59.744;18.206;2023-11-21T01:27:27;0.70;99.90
8684;DHT22;4379;59.744;18.206;2023-11-21T01:29:54;0.60;99.90
8684;DHT22;4379;59.744;18.206;2023-11-21T01:32:25;0.50;99.90
8684;DHT22;4379;59.744;18.206;2023-11-21T01:34:52;0.60;99.90
8684;DHT22;4379;59.744;18.206;2023-11-21T01:37:19;0.70;99.90
8684;DHT22;4379;59.744;18.206;2023-11-21T01:39:49;0.70;99.90
8684;DHT22;4379;59.744;18.206;2023-11-21T01:42:18;0.70;99.90
8684;DHT22;4379;59.744;18.206;2023-11-21T01:44:45;0.60;99.90
8684;DHT22;4379;59.744;18.206;2023-11-21T01:47:14;0.60;99.90
8684;DHT22;4379;59.744;18.206;2023-11-21T01:49:45;0.60;99.90
8684;DHT22;4379;59.744;18.206;2023-11-21T01:52:16;0.60;99.90
8684;DHT22;4379;59.744;18.206;2023-11-21T01:54:43;0.70;99.90
8684;DHT22;4379;59.744;18.206;2023-11-21T01:57:10;0.60;99.90
8684;DHT22;4379;59.744;18.206;2023-11-21T01:59:38;0.60;99.90
8684;DHT22;4379;59.744;18.206;2023-11-21T02:02:08;0.60;99.90
8684;DHT22;4379;59.744;18.206;2023-11-21T02:04:37;0.70;99.90
8684;DHT22;4379;59.744;18.206;2023-11-21T02:07:05;0.60;99.90
8684;DHT22;4379;59.744;18.206;2023-11-21T02:09:35;0.60;99.90
8684;DHT22;4379;59.744;18.206;2023-11-21T02:12:05;0.60;99.90
8684;DHT22;4379;59.744;18.206;2023-11-21T02:14:32;0.70;99.90
8684;DHT22;4379;59.744;18.206;2023-11-21T02:17:00;0.70;99.90
8684;DHT22;4379;59.744;18.206;2023-11-21T02:19:28;0.60;99.90
8684;DHT22;4379;59.744;18.206;2023-11-21T02:21:57;0.70;99.90
8684;DHT22;4379;59.744;18.206;2023-11-21T02:24:27;0.80;99.90
8684;DHT22;4379;59.744;18.206;2023-11-21T02:26:54;0.80;99.90
8684;DHT22;4379;59.744;18.206;2023-11-21T02:29:22;0.70;99.90
8684;DHT22;4379;59.744;18.206;2023-11-21T02:31:55;0.70;99.90
8684;DHT22;4379;59.744;18.206;2023-11-21T02:34:23;0.70;99.90
8684;DHT22;4379;59.744;18.206;2023-11-21T02:37:01;0.70;99.90
8684;DHT22;4379;59.744;18.206;2023-11-21T02:39:32;0.70;99.90
8684;DHT22;4379;59.744;18.206;2023-11-21T02:42:03;0.70;99.90
8684;DHT22;4379;59.744;18.206;2023-11-21T02:44:36;0.70;99.90
8684;DHT22;4379;59.744;18.206;2023-11-21T02:47:06;0.70;99.90
8684;DHT22;4379;59.744;18.206;2023-11-21T02:49:35;0.70;99.90
8684;DHT22;4379;59.744;18.206;2023-11-21T02:52:04;0.70;99.90
8684;DHT22;4379;59.744;18.206;2023-11-21T02:54:35;0.70;99.90
8684;DHT22;4379;59.744;18.206;2023-11-21T02:57:04;0.80;99.90
8684;DHT22;4379;59.744;18.206;2023-11-21T02:59:34;0.70;99.90
8684;DHT22;4379;59.744;18.206;2023-11-21T03:02:05;0.70;99.90
8684;DHT22;4379;59.744;18.206;2023-11-21T03:04:36;0.70;99.90
8684;DHT22;4379;59.744;18.206;2023-11-21T03:07:08;0.70;99.90
8684;DHT22;4379;59.744;18.206;2023-11-21T03:09:37;0.80;99.90
8684;DHT22;4379;59.744;18.206;2023-11-21T03:12:05;0.70;99.90
8684;DHT22;4379;59.744;18.206;2023-11-21T03:14:52;0.80;99.90
8684;DHT22;4379;59.744;18.206;2023-11-21T03:17:22;0.80;99.90
8684;DHT22;4379;59.744;18.206;2023-11-21T03:19:52;0.90;99.90
8684;DHT22;4379;59.744;18.206;2023-11-21T03:22:26;0.90;99.90
8684;DHT22;4379;59.744;18.206;2023-11-21T03:25:05;0.90;99.90
8684;DHT22;4379;59.744;18.206;2023-11-21T03:27:32;0.80;99.90
8684;DHT22;4379;59.744;18.206;2023-11-21T03:30:00;0.80;99.90
8684;DHT22;4379;59.744;18.206;2023-11-21T03:32:27;0.70;99.90
8684;DHT22;4379;59.744;18.206;2023-11-21T03:34:58;0.70;99.90
8684;DHT22;4379;59.744;18.206;2023-11-21T03:37:26;0.70;99.90
8684;DHT22;4379;59.744;18.206;2023-11-21T03:39:56;0.70;99.90
8684;DHT22;4379;59.744;18.206;2023-11-21T03:42:24;0.70;99.90
8684;DHT22;4379;59.744;18.206;2023-11-21T03:44:54;0.70;99.90
8684;DHT22;4379;59.744;18.206;2023-11-21T03:47:21;0.70;99.90
8684;DHT22;4379;59.744;18.206;2023-11-21T03:49:50;0.70;99.90
8684;DHT22;4379;59.744;18.206;2023-11-21T03:52:18;0.70;99.90
8684;DHT22;4379;59.744;18.206;2023-11-21T03:54:46;0.60;99.90
8684;DHT22;4379;59.744;18.206;2023-11-21T03:57:14;0.60;99.90
8684;DHT22;4379;59.744;18.206;2023-11-21T03:59:42;0.70;99.90
8684;DHT22;4379;59.744;18.206;2023-11-21T04:02:09;0.80;99.90
8684;DHT22;4379;59.744;18.206;2023-11-21T04:04:41;0.80;99.90
8684;DHT22;4379;59.744;18.206;2023-11-21T04:07:13;0.70;99.90
8684;DHT22;4379;59.744;18.206;2023-11-21T04:09:47;0.60;99.90
8684;DHT22;4379;59.744;18.206;2023-11-21T04:12:17;0.50;99.90
8684;DHT22;4379;59.744;18.206;2023-11-21T04:14:49;0.50;99.90
8684;DHT22;4379;59.744;18.206;2023-11-21T04:17:22;0.60;99.90
8684;DHT22;4379;59.744;18.206;2023-11-21T04:19:50;0.60;99.90
8684;DHT22;4379;59.744;18.206;2023-11-21T04:22:25;0.60;99.90
8684;DHT22;4379;59.744;18.206;2023-11-21T04:24:56;0.60;99.90
8684;DHT22;4379;59.744;18.206;2023-11-21T04:27:24;0.60;99.90
8684;DHT22;4379;59.744;18.206;2023-11-21T04:29:52;0.60;99.90
8684;DHT22;4379;59.744;18.206;2023-11-21T04:32:22;0.50;99.90
8684;DHT22;4379;59.744;18.206;2023-11-21T04:34:51;0.60;99.90
8684;DHT22;4379;59.744;18.206;2023-11-21T04:37:21;0.60;99.90
8684;DHT22;4379;59.744;18.206;2023-11-21T04:39:49;0.60;99.90
8684;DHT22;4379;59.744;18.206;2023-11-21T04:42:23;0.60;99.90
8684;DHT22;4379;59.744;18.206;2023-11-21T04:44:55;0.60;99.90
8684;DHT22;4379;59.744;18.206;2023-11-21T04:47:26;0.70;99.90
8684;DHT22;4379;59.744;18.206;2023-11-21T04:49:59;0.70;99.90
8684;DHT22;4379;59.744;18.206;2023-11-21T04:52:27;0.70;99.90
8684;DHT22;4379;59.744;18.206;2023-11-21T04:54:54;0.70;99.90
8684;DHT22;4379;59.744;18.206;2023-11-21T04:57:21;0.70;99.90
8684;DHT22;4379;59.744;18.206;2023-11-21T04:59:49;0.60;99.90
8684;DHT22;4379;59.744;18.206;2023-11-21T05:02:17;0.70;99.90
8684;DHT22;4379;59.744;18.206;2023-11-21T05:05:01;0.70;99.90
8684;DHT22;4379;59.744;18.206;2023-11-21T05:07:31;0.80;99.90
8684;DHT22;4379;59.744;18.206;2023-11-21T05:09:59;0.70;99.90
8684;DHT22;4379;59.744;18.206;2023-11-21T05:12:26;0.60;99.90
8684;DHT22;4379;59.744;18.206;2023-11-21T05:14:53;0.60;99.90
8684;DHT22;4379;59.744;18.206;2023-11-21T05:17:38;0.60;99.90
8684;DHT22;4379;59.744;18.206;2023-11-21T05:20:15;0.50;99.90
8684;DHT22;4379;59.744;18.206;2023-11-21T05:22:52;0.40;99.90
8684;DHT22;4379;59.744;18.206;2023-11-21T05:25:28;0.40;99.90
8684;DHT22;4379;59.744;18.206;2023-11-21T05:28:08;0.50;99.90
8684;DHT22;4379;59.744;18.206;2023-11-21T05:30:39;0.40;99.90
8684;DHT22;4379;59.744;18.206;2023-11-21T05:33:09;0.40;99.90
8684;DHT22;4379;59.744;18.206;2023-11-21T05:35:38;0.40;99.90
8684;DHT22;4379;59.744;18.206;2023-11-21T05:38:11;0.40;99.90
8684;DHT22;4379;59.744;18.206;2023-11-21T05:40:39;0.50;99.90
8684;DHT22;4379;59.744;18.206;2023-11-21T05:43:17;0.50;99.90
8684;DHT22;4379;59.744;18.206;2023-11-21T05:45:44;0.50;99.90
8684;DHT22;4379;59.744;18.206;2023-11-21T05:48:12;0.60;99.90
8684;DHT22;4379;59.744;18.206;2023-11-21T05:50:42;0.50;99.90
8684;DHT22;4379;59.744;18.206;2023-11-21T05:53:21;0.50;99.90
8684;DHT22;4379;59.744;18.206;2023-11-21T05:55:49;0.40;99.90
8684;DHT22;4379;59.744;18.206;2023-11-21T05:58:19;0.40;99.90
8684;DHT22;4379;59.744;18.206;2023-11-21T06:00:48;0.40;99.90
8684;DHT22;4379;59.744;18.206;2023-11-21T06:03:16;0.50;99.90
8684;DHT22;4379;59.744;18.206;2023-11-21T06:05:53;0.50;99.90
8684;DHT22;4379;59.744;18.206;2023-11-21T06:08:23;0.40;99.90
8684;DHT22;4379;59.744;18.206;2023-11-21T06:10:50;0.40;99.90
8684;DHT22;4379;59.744;18.206;2023-11-21T06:13:17;0.50;99.90
8684;DHT22;4379;59.744;18.206;2023-11-21T06:15:47;0.50;99.90
8684;DHT22;4379;59.744;18.206;2023-11-21T06:18:14;0.50;99.90
8684;DHT22;4379;59.744;18.206;2023-11-21T06:20:41;0.60;99.90
8684;DHT22;4379;59.744;18.206;2023-11-21T06:23:09;0.50;99.90
8684;DHT22;4379;59.744;18.206;2023-11-21T06:25:39;0.50;99.90
8684;DHT22;4379;59.744;18.206;2023-11-21T06:28:07;0.60;99.90
8684;DHT22;4379;59.744;18.206;2023-11-21T06:30:38;0.50;99.90
8684;DHT22;4379;59.744;18.206;2023-11-21T06:33:05;0.50;99.90
8684;DHT22;4379;59.744;18.206;2023-11-21T06:35:34;0.60;99.90
8684;DHT22;4379;59.744;18.206;2023-11-21T06:38:02;0.60;99.90
8684;DHT22;4379;59.744;18.206;2023-11-21T06:40:30;0.60;99.90
8684;DHT22;4379;59.744;18.206;2023-11-21T06:43:09;0.60;99.90
8684;DHT22;4379;59.744;18.206;2023-11-21T06:45:36;0.60;99.90
8684;DHT22;4379;59.744;18.206;2023-11-21T06:48:04;0.60;99.90
8684;DHT22;4379;59.744;18.206;2023-11-21T06:50:31;0.50;99.90
8684;DHT22;4379;59.744;18.206;2023-11-21T06:53:01;0.60;99.90
8684;DHT22;4379;59.744;18.206;2023-11-21T06:55:31;0.50;99.90
8684;DHT22;4379;59.744;18.206;2023-11-21T06:57:59;0.50;99.90
8684;DHT22;4379;59.744;18.206;2023-11-21T07:00:26;0.60;99.90
8684;DHT22;4379;59.744;18.206;2023-11-21T07:02:55;0.70;99.90
8684;DHT22;4379;59.744;18.206;2023-11-21T07:05:22;0.60;99.90
8684;DHT22;4379;59.744;18.206;2023-11-21T07:07:49;0.60;99.90
8684;DHT22;4379;59.744;18.206;2023-11-21T07:10:17;0.50;99.90
8684;DHT22;4379;59.744;18.206;2023-11-21T07:12:47;0.50;99.90
8684;DHT22;4379;59.744;18.206;2023-11-21T07:15:16;0.50;99.90
8684;DHT22;4379;59.744;18.206;2023-11-21T07:17:47;0.40;99.90
8684;DHT22;4379;59.744;18.206;2023-11-21T07:20:22;0.40;99.90
8684;DHT22;4379;59.744;18.206;2023-11-21T07:22:50;0.40;99.90
8684;DHT22;4379;59.744;18.206;2023-11-21T07:25:21;0.50;99.90
8684;DHT22;4379;59.744;18.206;2023-11-21T07:28:01;0.50;99.90
8684;DHT22;4379;59.744;18.206;2023-11-21T07:31:13;0.60;99.90
8684;DHT22;4379;59.744;18.206;2023-11-21T07:33:53;0.70;99.90
8684;DHT22;4379;59.744;18.206;2023-11-21T07:36:40;0.70;99.90
8684;DHT22;4379;59.744;18.206;2023-11-21T07:39:12;0.70;99.90
8684;DHT22;4379;59.744;18.206;2023-11-21T07:41:44;0.60;99.90
8684;DHT22;4379;59.744;18.206;2023-11-21T07:44:29;0.60;99.90
8684;DHT22;4379;59.744;18.206;2023-11-21T07:47:05;0.60;99.90
8684;DHT22;4379;59.744;18.206;2023-11-21T07:49:47;0.60;99.90
8684;DHT22;4379;59.744;18.206;2023-11-21T07:52:29;0.60;99.90
8684;DHT22;4379;59.744;18.206;2023-11-21T07:55:00;0.50;99.90
8684;DHT22;4379;59.744;18.206;2023-11-21T07:57:28;0.60;99.90
8684;DHT22;4379;59.744;18.206;2023-11-21T07:59:55;0.60;99.90
8684;DHT22;4379;59.744;18.206;2023-11-21T08:02:26;0.60;99.90
8684;DHT22;4379;59.744;18.206;2023-11-21T08:04:58;0.50;99.90
8684;DHT22;4379;59.744;18.206;2023-11-21T08:07:27;0.50;99.90
8684;DHT22;4379;59.744;18.206;2023-11-21T08:10:20;0.60;99.90
8684;DHT22;4379;59.744;18.206;2023-11-21T08:12:56;0.40;99.90
8684;DHT22;4379;59.744;18.206;2023-11-21T08:15:24;0.50;99.90
8684;DHT22;4379;59.744;18.206;2023-11-21T08:17:55;0.40;99.90
8684;DHT22;4379;59.744;18.206;2023-11-21T08:20:27;0.40;99.90
8684;DHT22;4379;59.744;18.206;2023-11-21T08:23:12;0.40;99.90
8684;DHT22;4379;59.744;18.206;2023-11-21T08:25:40;0.50;99.90
8684;DHT22;4379;59.744;18.206;2023-11-21T08:28:09;0.60;99.90
8684;DHT22;4379;59.744;18.206;2023-11-21T08:30:36;0.60;99.90
8684;DHT22;4379;59.744;18.206;2023-11-21T08:33:03;0.60;99.90
8684;DHT22;4379;59.744;18.206;2023-11-21T08:35:31;0.70;99.90
8684;DHT22;4379;59.744;18.206;2023-11-21T08:37:59;0.70;99.90
8684;DHT22;4379;59.744;18.206;2023-11-21T08:40:26;0.70;99.90
8684;DHT22;4379;59.744;18.206;2023-11-21T08:42:54;0.60;99.90
8684;DHT22;4379;59.744;18.206;2023-11-21T08:45:25;0.50;99.90
8684;DHT22;4379;59.744;18.206;2023-11-21T08:48:11;0.60;99.90
8684;DHT22;4379;59.744;18.206;2023-11-21T08:50:42;0.70;99.90
8684;DHT22;4379;59.744;18.206;2023-11-21T08:53:29;1.00;99.90
8684;DHT22;4379;59.744;18.206;2023-11-21T08:55:58;1.00;99.90
8684;DHT22;4379;59.744;18.206;2023-11-21T08:58:26;0.90;99.90
8684;DHT22;4379;59.744;18.206;2023-11-21T09:00:53;0.70;99.90
8684;DHT22;4379;59.744;18.206;2023-11-21T09:03:23;0.70;99.90
8684;DHT22;4379;59.744;18.206;2023-11-21T09:05:51;0.80;99.90
8684;DHT22;4379;59.744;18.206;2023-11-21T09:08:18;0.90;99.90
8684;DHT22;4379;59.744;18.206;2023-11-21T09:10:45;0.90;99.90
8684;DHT22;4379;59.744;18.206;2023-11-21T09:13:14;0.80;99.90
8684;DHT22;4379;59.744;18.206;2023-11-21T09:15:43;0.80;99.90
8684;DHT22;4379;59.744;18.206;2023-11-21T09:18:14;0.80;99.90
8684;DHT22;4379;59.744;18.206;2023-11-21T09:20:43;0.90;99.90
8684;DHT22;4379;59.744;18.206;2023-11-21T09:23:13;0.90;99.90
8684;DHT22;4379;59.744;18.206;2023-11-21T09:25:42;0.90;99.90
8684;DHT22;4379;59.744;18.206;2023-11-21T09:28:13;1.00;99.90
8684;DHT22;4379;59.744;18.206;2023-11-21T09:30:40;0.80;99.90
8684;DHT22;4379;59.744;18.206;2023-11-21T09:33:08;0.90;99.90
8684;DHT22;4379;59.744;18.206;2023-11-21T09:35:39;0.90;99.90
8684;DHT22;4379;59.744;18.206;2023-11-21T09:38:07;1.00;99.90
8684;DHT22;4379;59.744;18.206;2023-11-21T09:40:49;0.90;99.90
8684;DHT22;4379;59.744;18.206;2023-11-21T09:46:55;1.00;99.90
8684;DHT22;4379;59.744;18.206;2023-11-21T09:49:39;1.00;99.90
8684;DHT22;4379;59.744;18.206;2023-11-21T09:55:18;1.00;99.90
8684;DHT22;4379;59.744;18.206;2023-11-21T09:57:56;1.00;99.90
8684;DHT22;4379;59.744;18.206;2023-11-21T10:00:24;1.00;99.90
8684;DHT22;4379;59.744;18.206;2023-11-21T10:02:58;1.00;99.90
8684;DHT22;4379;59.744;18.206;2023-11-21T10:05:27;1.00;99.90
8684;DHT22;4379;59.744;18.206;2023-11-21T10:07:56;1.00;99.90
8684;DHT22;4379;59.744;18.206;2023-11-21T10:10:26;1.00;99.90
8684;DHT22;4379;59.744;18.206;2023-11-21T10:12:57;1.10;99.90
8684;DHT22;4379;59.744;18.206;2023-11-21T10:15:25;1.20;99.90
8684;DHT22;4379;59.744;18.206;2023-11-21T10:17:53;1.30;99.90
8684;DHT22;4379;59.744;18.206;2023-11-21T10:20:23;1.40;99.90
8684;DHT22;4379;59.744;18.206;2023-11-21T10:22:52;1.50;99.90
8684;DHT22;4379;59.744;18.206;2023-11-21T10:25:22;1.30;99.90
8684;DHT22;4379;59.744;18.206;2023-11-21T10:27:58;1.40;99.90
8684;DHT22;4379;59.744;18.206;2023-11-21T10:30:36;1.40;99.90
8684;DHT22;4379;59.744;18.206;2023-11-21T10:33:05;1.20;99.90
8684;DHT22;4379;59.744;18.206;2023-11-21T10:35:48;1.20;99.90
8684;DHT22;4379;59.744;18.206;2023-11-21T10:38:23;1.20;99.90
8684;DHT22;4379;59.744;18.206;2023-11-21T10:40:53;1.30;99.90
8684;DHT22;4379;59.744;18.206;2023-11-21T10:43:25;1.00;99.90
8684;DHT22;4379;59.744;18.206;2023-11-21T10:45:57;1.00;99.90
8684;DHT22;4379;59.744;18.206;2023-11-21T10:48:29;0.90;99.90
8684;DHT22;4379;59.744;18.206;2023-11-21T10:51:00;0.70;99.90
8684;DHT22;4379;59.744;18.206;2023-11-21T10:53:33;0.70;99.90
8684;DHT22;4379;59.744;18.206;2023-11-21T10:56:23;0.70;99.90
8684;DHT22;4379;59.744;18.206;2023-11-21T10:58:50;0.70;99.90
8684;DHT22;4379;59.744;18.206;2023-11-21T11:01:19;0.70;99.90
8684;DHT22;4379;59.744;18.206;2023-11-21T11:03:52;0.70;99.90
8684;DHT22;4379;59.744;18.206;2023-11-21T11:06:24;0.60;99.90
8684;DHT22;4379;59.744;18.206;2023-11-21T11:08:54;0.50;99.90
8684;DHT22;4379;59.744;18.206;2023-11-21T11:11:21;0.60;99.90
8684;DHT22;4379;59.744;18.206;2023-11-21T11:13:49;0.60;99.90
8684;DHT22;4379;59.744;18.206;2023-11-21T11:16:17;0.70;99.90
8684;DHT22;4379;59.744;18.206;2023-11-21T11:18:45;0.70;99.90
8684;DHT22;4379;59.744;18.206;2023-11-21T11:21:32;0.70;99.90
8684;DHT22;4379;59.744;18.206;2023-11-21T11:32:36;0.80;99.90
8684;DHT22;4379;59.744;18.206;2023-11-21T11:38:06;0.70;99.90
8684;DHT22;4379;59.744;18.206;2023-11-21T11:40:41;0.70;99.90
8684;DHT22;4379;59.744;18.206;2023-11-21T11:43:12;0.70;99.90
8684;DHT22;4379;59.744;18.206;2023-11-21T11:45:39;0.60;99.90
8684;DHT22;4379;59.744;18.206;2023-11-21T11:48:11;0.70;99.90
8684;DHT22;4379;59.744;18.206;2023-11-21T11:51:02;0.70;99.90
8684;DHT22;4379;59.744;18.206;2023-11-21T11:53:46;0.60;99.90
8684;DHT22;4379;59.744;18.206;2023-11-21T11:56:35;0.50;99.90
8684;DHT22;4379;59.744;18.206;2023-11-21T11:59:11;0.60;99.90
8684;DHT22;4379;59.744;18.206;2023-11-21T12:01:57;0.70;99.90
8684;DHT22;4379;59.744;18.206;2023-11-21T12:04:43;0.70;99.90
8684;DHT22;4379;59.744;18.206;2023-11-21T12:07:46;0.80;99.90
8684;DHT22;4379;59.744;18.206;2023-11-21T12:10:47;0.70;99.90
8684;DHT22;4379;59.744;18.206;2023-11-21T12:13:30;0.70;99.90
8684;DHT22;4379;59.744;18.206;2023-11-21T12:16:28;0.70;99.90
8684;DHT22;4379;59.744;18.206;2023-11-21T12:19:16;0.80;99.90
8684;DHT22;4379;59.744;18.206;2023-11-21T12:21:51;0.90;99.90
8684;DHT22;4379;59.744;18.206;2023-11-21T12:24:51;0.90;99.90
8684;DHT22;4379;59.744;18.206;2023-11-21T12:27:39;0.90;99.90
8684;DHT22;4379;59.744;18.206;2023-11-21T12:30:13;1.00;99.90
8684;DHT22;4379;59.744;18.206;2023-11-21T12:32:42;0.90;99.90
8684;DHT22;4379;59.744;18.206;2023-11-21T12:35:15;0.90;99.90
8684;DHT22;4379;59.744;18.206;2023-11-21T12:38:12;1.00;99.90
8684;DHT22;4379;59.744;18.206;2023-11-21T12:40:39;1.00;99.90
8684;DHT22;4379;59.744;18.206;2023-11-21T12:43:17;1.00;99.90
8684;DHT22;4379;59.744;18.206;2023-11-21T12:45:45;1.00;99.90
8684;DHT22;4379;59.744;18.206;2023-11-21T12:48:41;0.90;99.90
8684;DHT22;4379;59.744;18.206;2023-11-21T12:51:19;0.80;99.90
8684;DHT22;4379;59.744;18.206;2023-11-21T12:53:49;0.70;99.90
8684;DHT22;4379;59.744;18.206;2023-11-21T12:56:16;0.60;99.90
8684;DHT22;4379;59.744;18.206;2023-11-21T12:58:45;0.60;99.90
8684;DHT22;4379;59.744;18.206;2023-11-21T13:01:18;0.50;99.90
8684;DHT22;4379;59.744;18.206;2023-11-21T13:03:50;0.50;99.90
8684;DHT22;4379;59.744;18.206;2023-11-21T13:06:18;0.50;99.90
8684;DHT22;4379;59.744;18.206;2023-11-21T13:08:47;0.40;99.90
8684;DHT22;4379;59.744;18.206;2023-11-21T13:11:14;0.50;99.90
8684;DHT22;4379;59.744;18.206;2023-11-21T13:13:42;0.60;99.90
8684;DHT22;4379;59.744;18.206;2023-11-21T13:16:12;0.80;99.90
8684;DHT22;4379;59.744;18.206;2023-11-21T13:18:40;0.80;99.90
8684;DHT22;4379;59.744;18.206;2023-11-21T13:21:09;0.90;99.90
8684;DHT22;4379;59.744;18.206;2023-11-21T13:23:41;0.90;99.90
8684;DHT22;4379;59.744;18.206;2023-11-21T13:26:09;0.80;99.90
8684;DHT22;4379;59.744;18.206;2023-11-21T13:28:37;0.70;99.90
8684;DHT22;4379;59.744;18.206;2023-11-21T13:31:06;0.70;99.90
8684;DHT22;4379;59.744;18.206;2023-11-21T13:33:38;0.50;99.90
8684;DHT22;4379;59.744;18.206;2023-11-21T13:36:07;0.50;99.90
8684;DHT22;4379;59.744;18.206;2023-11-21T13:38:37;0.50;99.90
8684;DHT22;4379;59.744;18.206;2023-11-21T13:41:09;0.40;99.90
8684;DHT22;4379;59.744;18.206;2023-11-21T13:43:37;0.40;99.90
8684;DHT22;4379;59.744;18.206;2023-11-21T13:46:05;0.40;99.90
8684;DHT22;4379;59.744;18.206;2023-11-21T13:48:42;0.20;99.90
8684;DHT22;4379;59.744;18.206;2023-11-21T13:51:11;0.20;99.90
8684;DHT22;4379;59.744;18.206;2023-11-21T13:53:45;0.20;99.90
8684;DHT22;4379;59.744;18.206;2023-11-21T13:56:15;0.20;99.90
8684;DHT22;4379;59.744;18.206;2023-11-21T13:58:46;0.10;99.90
8684;DHT22;4379;59.744;18.206;2023-11-21T14:01:23;-0.10;99.90
8684;DHT22;4379;59.744;18.206;2023-11-21T14:04:01;-0.20;99.90
8684;DHT22;4379;59.744;18.206;2023-11-21T14:06:44;-0.30;99.90
8684;DHT22;4379;59.744;18.206;2023-11-21T14:09:20;-0.30;99.90
8684;DHT22;4379;59.744;18.206;2023-11-21T14:11:52;-0.40;99.90
8684;DHT22;4379;59.744;18.206;2023-11-21T14:14:21;-0.50;99.90
8684;DHT22;4379;59.744;18.206;2023-11-21T14:16:49;-0.40;99.90
8684;DHT22;4379;59.744;18.206;2023-11-21T14:19:17;-0.40;99.90
8684;DHT22;4379;59.744;18.206;2023-11-21T14:21:45;-0.40;99.90
8684;DHT22;4379;59.744;18.206;2023-11-21T14:24:12;-0.40;99.90
8684;DHT22;4379;59.744;18.206;2023-11-21T14:26:41;-0.40;99.90
8684;DHT22;4379;59.744;18.206;2023-11-21T14:29:09;-0.40;99.90
8684;DHT22;4379;59.744;18.206;2023-11-21T14:31:42;-0.40;99.90
8684;DHT22;4379;59.744;18.206;2023-11-21T14:34:10;-0.30;99.90
8684;DHT22;4379;59.744;18.206;2023-11-21T14:36:39;-0.20;99.90
8684;DHT22;4379;59.744;18.206;2023-11-21T14:39:07;-0.10;99.90
8684;DHT22;4379;59.744;18.206;2023-11-21T14:41:38;-0.20;99.90
8684;DHT22;4379;59.744;18.206;2023-11-21T14:44:06;-0.10;99.90
8684;DHT22;4379;59.744;18.206;2023-11-21T14:46:39;0.00;99.90
8684;DHT22;4379;59.744;18.206;2023-11-21T14:49:07;-0.10;99.90
8684;DHT22;4379;59.744;18.206;2023-11-21T14:51:47;-0.10;99.90
8684;DHT22;4379;59.744;18.206;2023-11-21T14:54:31;0.00;99.90
8684;DHT22;4379;59.744;18.206;2023-11-21T14:57:13;0.00;99.90
8684;DHT22;4379;59.744;18.206;2023-11-21T14:59:49;-0.10;99.90
8684;DHT22;4379;59.744;18.206;2023-11-21T15:02:19;-0.10;99.90
8684;DHT22;4379;59.744;18.206;2023-11-21T15:05:10;-0.10;99.90
8684;DHT22;4379;59.744;18.206;2023-11-21T15:07:47;-0.20;99.90
8684;DHT22;4379;59.744;18.206;2023-11-21T15:10:16;-0.10;99.90
8684;DHT22;4379;59.744;18.206;2023-11-21T15:12:49;-0.10;99.90
8684;DHT22;4379;59.744;18.206;2023-11-21T15:15:16;0.00;99.90
8684;DHT22;4379;59.744;18.206;2023-11-21T15:17:44;-0.10;99.90
8684;DHT22;4379;59.744;18.206;2023-11-21T15:20:12;-0.20;99.90
8684;DHT22;4379;59.744;18.206;2023-11-21T15:22:45;-0.20;99.90
8684;DHT22;4379;59.744;18.206;2023-11-21T15:25:13;-0.30;99.90
8684;DHT22;4379;59.744;18.206;2023-11-21T15:27:40;-0.30;99.90
8684;DHT22;4379;59.744;18.206;2023-11-21T15:30:08;-0.30;99.90
8684;DHT22;4379;59.744;18.206;2023-11-21T15:32:35;-0.40;99.90
8684;DHT22;4379;59.744;18.206;2023-11-21T15:35:03;-0.50;99.90
8684;DHT22;4379;59.744;18.206;2023-11-21T15:37:30;-0.40;99.90
8684;DHT22;4379;59.744;18.206;2023-11-21T15:39:57;-0.60;99.90
8684;DHT22;4379;59.744;18.206;2023-11-21T15:42:24;-0.80;99.90
8684;DHT22;4379;59.744;18.206;2023-11-21T15:44:51;-0.80;99.90
8684;DHT22;4379;59.744;18.206;2023-11-21T15:47:18;-0.80;99.90
8684;DHT22;4379;59.744;18.206;2023-11-21T15:49:46;-1.00;99.90
8684;DHT22;4379;59.744;18.206;2023-11-21T15:52:17;-1.00;99.90
8684;DHT22;4379;59.744;18.206;2023-11-21T15:54:45;-1.10;99.90
8684;DHT22;4379;59.744;18.206;2023-11-21T15:57:13;-1.10;99.90
8684;DHT22;4379;59.744;18.206;2023-11-21T15:59:41;-1.20;99.90
8684;DHT22;4379;59.744;18.206;2023-11-21T16:02:10;-1.20;99.90
8684;DHT22;4379;59.744;18.206;2023-11-21T16:04:39;-1.20;99.90
8684;DHT22;4379;59.744;18.206;2023-11-21T16:07:08;-1.20;99.90
8684;DHT22;4379;59.744;18.206;2023-11-21T16:09:36;-1.20;99.90
8684;DHT22;4379;59.744;18.206;2023-11-21T16:12:06;-1.20;99.90
8684;DHT22;4379;59.744;18.206;2023-11-21T16:14:35;-1.30;99.90
8684;DHT22;4379;59.744;18.206;2023-11-21T16:17:05;-1.40;99.90
8684;DHT22;4379;59.744;18.206;2023-11-21T16:19:35;-1.40;99.90
8684;DHT22;4379;59.744;18.206;2023-11-21T16:22:02;-1.40;99.90
8684;DHT22;4379;59.744;18.206;2023-11-21T16:24:30;-1.50;99.90
8684;DHT22;4379;59.744;18.206;2023-11-21T16:26:57;-1.50;99.90
8684;DHT22;4379;59.744;18.206;2023-11-21T16:29:24;-1.50;99.90
8684;DHT22;4379;59.744;18.206;2023-11-21T16:31:51;-1.70;99.90
8684;DHT22;4379;59.744;18.206;2023-11-21T16:34:21;-1.70;99.90
8684;DHT22;4379;59.744;18.206;2023-11-21T16:36:48;-1.70;99.90
8684;DHT22;4379;59.744;18.206;2023-11-21T16:39:19;-1.70;99.90
8684;DHT22;4379;59.744;18.206;2023-11-21T16:41:48;-1.70;99.90
8684;DHT22;4379;59.744;18.206;2023-11-21T16:44:20;-1.70;99.90
8684;DHT22;4379;59.744;18.206;2023-11-21T16:46:51;-1.80;99.90